TimeEST,TemperatureF,Dew PointF,Humidity,Sea Level PressureIn,VisibilityMPH,Wind Direction,Wind SpeedMPH,Gust SpeedMPH,PrecipitationIn,Events,Conditions,WindDirDegrees,DateUTC
12:35 AM,12.2,3.2,67,30.01,10.0,West,13.8,20.7,N/A,,Overcast,270,2013-01-22 05:35:00
12:53 AM,12.0,-0.0,59,30.09,10.0,West,17.3,26.5,N/A,,Overcast,280,2013-01-22 05:53:00
1:53 AM,10.0,-0.9,61,30.10,10.0,West,15.0,25.3,N/A,,Scattered Clouds,270,2013-01-22 06:53:00
2:53 AM,9.0,-0.9,64,30.13,10.0,West,13.8,23.0,N/A,,Clear,270,2013-01-22 07:53:00
3:53 AM,8.1,-0.9,67,30.14,10.0,West,17.3,26.5,N/A,,Clear,270,2013-01-22 08:53:00
4:53 AM,8.1,-2.0,64,30.15,10.0,West,13.8,21.9,N/A,,Clear,260,2013-01-22 09:53:00
5:53 AM,7.0,-2.0,67,30.18,10.0,WSW,13.8,20.7,N/A,,Partly Cloudy,250,2013-01-22 10:53:00
6:53 AM,7.0,-2.9,64,30.21,10.0,West,12.7,-,N/A,,Clear,260,2013-01-22 11:53:00
7:53 AM,6.1,-4.0,63,30.22,10.0,West,11.5,19.6,N/A,,Partly Cloudy,260,2013-01-22 12:53:00
8:53 AM,8.1,-2.9,61,30.25,10.0,West,16.1,23.0,N/A,,Scattered Clouds,260,2013-01-22 13:53:00
9:06 AM,8.6,-2.2,62,30.16,10.0,West,13.8,20.7,N/A,,Mostly Cloudy,260,2013-01-22 14:06:00
9:53 AM,9.0,-2.9,59,30.27,10.0,West,10.4,17.3,N/A,,Mostly Cloudy,280,2013-01-22 14:53:00
10:53 AM,10.0,-2.9,56,30.27,10.0,West,16.1,24.2,N/A,,Mostly Cloudy,260,2013-01-22 15:53:00
11:53 AM,10.0,-6.0,48,30.25,10.0,West,16.1,26.5,N/A,,Overcast,280,2013-01-22 16:53:00
12:53 PM,10.9,-2.9,54,30.24,10.0,West,16.1,21.9,N/A,,Overcast,270,2013-01-22 17:53:00
1:53 PM,12.0,-2.0,53,30.24,9.0,West,13.8,20.7,0.00,,Overcast,270,2013-01-22 18:53:00
2:53 PM,12.9,-2.0,51,30.24,6.0,West,11.5,18.4,0.00,,Haze,270,2013-01-22 19:53:00
3:53 PM,12.0,-2.9,51,30.25,10.0,WNW,9.2,20.7,N/A,,Mostly Cloudy,290,2013-01-22 20:53:00
4:53 PM,10.9,-2.9,54,30.27,10.0,WNW,13.8,21.9,N/A,,Scattered Clouds,290,2013-01-22 21:53:00
5:28 PM,10.4,-4.0,52,30.19,10.0,West,11.5,18.4,N/A,,Mostly Cloudy,270,2013-01-22 22:28:00
5:50 PM,10.4,-2.2,57,30.19,10.0,WNW,10.4,18.4,N/A,,Mostly Cloudy,300,2013-01-22 22:50:00
5:53 PM,10.0,-2.9,56,30.29,10.0,West,12.7,18.4,N/A,,Mostly Cloudy,280,2013-01-22 22:53:00
6:53 PM,10.0,-2.0,58,30.30,10.0,WNW,5.8,-,N/A,,Clear,290,2013-01-22 23:53:00
7:53 PM,10.0,-2.0,58,30.31,10.0,WNW,6.9,-,N/A,,Clear,290,2013-01-23 00:53:00
8:53 PM,9.0,-2.0,61,30.30,10.0,West,8.1,-,N/A,,Scattered Clouds,280,2013-01-23 01:53:00
9:53 PM,9.0,-2.0,61,30.30,10.0,West,5.8,-,N/A,,Clear,270,2013-01-23 02:53:00
10:53 PM,9.0,-0.9,64,30.32,10.0,West,6.9,-,N/A,,Overcast,280,2013-01-23 03:53:00
11:36 PM,8.6,-0.4,67,30.21,7.0,West,6.9,-,N/A,,Overcast,280,2013-01-23 04:36:00
11:53 PM,8.1,-0.0,70,30.31,10.0,Variable,6.9,-,N/A,,Mostly Cloudy,0,2013-01-23 04:53:00